createdAt,value
2023-05-10T00:01:55.497Z,96528.28
2023-05-10T00:04:22.561Z,96522.31
2023-05-10T00:06:51.404Z,96518.47
2023-05-10T00:09:22.895Z,96524.91
2023-05-10T00:11:49.430Z,96529.03
2023-05-10T00:14:18.500Z,96526.63
2023-05-10T00:16:48.168Z,96527.38
2023-05-10T00:19:20.024Z,96531.75
2023-05-10T00:21:50.163Z,96541.25
2023-05-10T00:24:19.015Z,96539.72
2023-05-10T00:26:50.321Z,96538.19
2023-05-10T00:29:16.852Z,96532.31
2023-05-10T00:31:43.451Z,96536.38
2023-05-10T00:34:13.071Z,96548.34
2023-05-10T00:36:39.593Z,96541.56
2023-05-10T00:39:08.932Z,96541.06
2023-05-10T00:41:35.458Z,96534.53
2023-05-10T00:44:06.972Z,96542.81
2023-05-10T00:46:36.134Z,96548.41
2023-05-10T00:49:03.061Z,96545.91
2023-05-10T00:51:33.149Z,96549.84
2023-05-10T00:54:04.484Z,96551.25
2023-05-10T00:56:31.121Z,96551.56
2023-05-10T00:59:00.839Z,96550.81
2023-05-10T01:01:30.140Z,96555.38
2023-05-10T01:03:57.127Z,96550.22
2023-05-10T01:06:23.708Z,96554.03
2023-05-10T01:08:50.895Z,96556.00
2023-05-10T01:11:17.544Z,96557.94
2023-05-10T01:13:50.938Z,96557.41
2023-05-10T01:16:18.137Z,96561.75
2023-05-10T01:18:45.576Z,96560.22
2023-05-10T01:21:35.263Z,96553.84
2023-05-10T01:24:10.789Z,96557.34
2023-05-10T01:26:55.917Z,96557.66
2023-05-10T01:29:31.632Z,96565.13
2023-05-10T01:32:04.418Z,96559.53
2023-05-10T01:35:09.862Z,96563.59
2023-05-10T01:37:44.753Z,96561.31
2023-05-10T01:40:11.344Z,96560.75
2023-05-10T01:42:47.397Z,96557.56
2023-05-10T01:45:25.361Z,96562.41
2023-05-10T01:48:05.216Z,96565.69
2023-05-10T01:50:35.729Z,96573.09
2023-05-10T01:53:07.384Z,96567.63
2023-05-10T01:55:40.666Z,96567.63
2023-05-10T01:58:14.774Z,96571.88
2023-05-10T02:00:44.441Z,96572.53
2023-05-10T02:03:14.969Z,96566.66
2023-05-10T02:05:46.106Z,96575.38
2023-05-10T02:08:16.842Z,96577.97
2023-05-10T02:10:44.431Z,96577.97
2023-05-10T02:13:12.669Z,96576.63
2023-05-10T02:15:45.608Z,96567.84
2023-05-10T02:18:13.700Z,96575.69
2023-05-10T02:20:43.831Z,96577.53
2023-05-10T02:23:11.063Z,96573.84
2023-05-10T02:25:39.918Z,96576.91
2023-05-10T02:28:10.532Z,96576.91
2023-05-10T02:30:40.281Z,96569.75
2023-05-10T02:33:09.768Z,96572.91
2023-05-10T02:35:37.967Z,96575.81
2023-05-10T02:38:05.939Z,96581.56
2023-05-10T02:40:34.607Z,96567.78
2023-05-10T02:43:03.535Z,96572.31
2023-05-10T02:45:39.925Z,96574.88
2023-05-10T02:48:09.208Z,96576.94
2023-05-10T02:50:43.193Z,96574.09
2023-05-10T02:53:20.254Z,96566.38
2023-05-10T02:55:52.642Z,96574.03
2023-05-10T02:58:24.742Z,96560.84
2023-05-10T03:00:58.591Z,96570.34
2023-05-10T03:03:25.255Z,96564.00
2023-05-10T03:05:51.833Z,96563.50
2023-05-10T03:08:18.417Z,96573.63
2023-05-10T03:11:02.572Z,96570.47
2023-05-10T03:13:58.341Z,96562.75
2023-05-10T03:16:47.803Z,96562.16
2023-05-10T03:19:37.984Z,96562.50
2023-05-10T03:22:11.179Z,96569.72
2023-05-10T03:24:40.504Z,96568.81
2023-05-10T03:27:07.614Z,96575.34
2023-05-10T03:29:34.627Z,96573.38
2023-05-10T03:32:03.822Z,96591.91
2023-05-10T03:34:32.604Z,96578.81
2023-05-10T03:37:01.678Z,96580.78
2023-05-10T03:39:28.248Z,96579.41
2023-05-10T03:41:59.833Z,96586.03
2023-05-10T03:44:26.396Z,96583.09
2023-05-10T03:46:53.173Z,96573.97
2023-05-10T03:49:22.092Z,96568.06
2023-05-10T03:51:51.161Z,96575.16
2023-05-10T03:54:22.573Z,96578.84
2023-05-10T03:56:51.270Z,96579.06
2023-05-10T03:59:17.841Z,96581.13
2023-05-10T04:01:44.415Z,96579.06
2023-05-10T04:04:11.040Z,96587.69
2023-05-10T04:06:42.010Z,96583.53
2023-05-10T04:09:09.410Z,96575.25
2023-05-10T04:11:38.288Z,96581.47
2023-05-10T04:14:04.860Z,96584.63
2023-05-10T04:16:33.623Z,96588.97
2023-05-10T04:19:02.702Z,96586.06
2023-05-10T04:21:29.279Z,96590.22
2023-05-10T04:23:55.840Z,96587.19
2023-05-10T04:26:23.572Z,96593.28
2023-05-10T04:28:52.481Z,96592.28
2023-05-10T04:31:19.097Z,96600.88
2023-05-10T04:33:45.896Z,96595.56
2023-05-10T04:36:14.828Z,96601.44
2023-05-10T04:38:43.765Z,96599.34
2023-05-10T04:41:11.558Z,96597.41
2023-05-10T04:43:39.081Z,96599.50
2023-05-10T04:46:08.965Z,96610.56
2023-05-10T04:48:37.836Z,96614.06
2023-05-10T04:51:07.557Z,96614.28
2023-05-10T04:53:37.223Z,96609.63
2023-05-10T04:56:04.042Z,96612.97
2023-05-10T04:58:30.714Z,96616.88
2023-05-10T05:00:59.219Z,96606.31
2023-05-10T05:03:28.221Z,96623.09
2023-05-10T05:05:54.855Z,96627.66
2023-05-10T05:08:21.431Z,96614.06
2023-05-10T05:10:51.182Z,96624.25
2023-05-10T05:13:20.067Z,96613.38
2023-05-10T05:15:46.770Z,96615.22
2023-05-10T05:18:13.424Z,96626.31
2023-05-10T05:20:40.161Z,96635.56
2023-05-10T05:23:09.704Z,96640.69
2023-05-10T05:25:36.877Z,96637.53
2023-05-10T05:28:03.478Z,96643.53
2023-05-10T05:30:30.015Z,96649.31
2023-05-10T05:32:56.686Z,96653.13
2023-05-10T05:35:25.657Z,96652.28
2023-05-10T05:37:54.504Z,96663.69
2023-05-10T05:40:21.549Z,96669.22
2023-05-10T05:42:48.136Z,96663.25
2023-05-10T05:45:14.963Z,96659.00
2023-05-10T05:47:44.122Z,96665.75
2023-05-10T05:50:10.995Z,96666.63
2023-05-10T05:52:37.638Z,96664.44
2023-05-10T05:55:06.944Z,96661.28
2023-05-10T05:57:33.527Z,96676.53
2023-05-10T06:00:04.055Z,96676.97
2023-05-10T06:02:30.858Z,96682.06
2023-05-10T06:04:59.831Z,96678.28
2023-05-10T06:07:28.788Z,96686.09
2023-05-10T06:09:55.327Z,96677.50
2023-05-10T06:12:24.078Z,96686.50
2023-05-10T06:14:55.119Z,96686.22
2023-05-10T06:17:24.303Z,96685.44
2023-05-10T06:19:55.882Z,96686.97
2023-05-10T06:22:25.511Z,96694.47
2023-05-10T06:24:54.615Z,96697.31
2023-05-10T06:27:23.409Z,96687.94
2023-05-10T06:29:56.534Z,96691.72
2023-05-10T06:32:31.391Z,96680.59
2023-05-10T06:34:58.642Z,96689.97
2023-05-10T06:37:27.740Z,96693.03
2023-05-10T06:39:59.021Z,96685.69
2023-05-10T06:42:28.357Z,96689.63
2023-05-10T06:44:54.984Z,96694.16
2023-05-10T06:47:26.330Z,96692.22
2023-05-10T06:49:53.011Z,96693.09
2023-05-10T06:52:21.861Z,96702.31
2023-05-10T06:54:48.867Z,96704.91
2023-05-10T06:57:27.673Z,96702.75
2023-05-10T07:00:00.018Z,96704.84
2023-05-10T07:02:27.202Z,96707.00
2023-05-10T07:04:54.259Z,96708.41
2023-05-10T07:07:20.940Z,96709.75
2023-05-10T07:09:50.987Z,96714.34
2023-05-10T07:12:19.889Z,96713.72
2023-05-10T07:14:48.763Z,96715.19
2023-05-10T07:17:20.224Z,96719.22
2023-05-10T07:19:49.787Z,96716.34
2023-05-10T07:22:23.589Z,96716.28
2023-05-10T07:24:50.190Z,96713.31
2023-05-10T07:27:18.822Z,96719.28
2023-05-10T07:29:47.975Z,96711.16
2023-05-10T07:32:14.853Z,96724.41
2023-05-10T07:34:41.428Z,96726.13
2023-05-10T07:37:08.452Z,96723.19
2023-05-10T07:39:37.320Z,96721.94
2023-05-10T07:42:04.011Z,96722.91
2023-05-10T07:44:30.693Z,96727.31
2023-05-10T07:46:57.601Z,96730.06
2023-05-10T07:49:29.917Z,96730.63
2023-05-10T07:51:58.810Z,96734.59
2023-05-10T07:54:25.431Z,96722.13
2023-05-10T07:56:52.300Z,96726.69
2023-05-10T07:59:19.091Z,96724.00
2023-05-10T08:01:50.862Z,96727.94
2023-05-10T08:04:17.443Z,96725.88
2023-05-10T08:06:46.610Z,96728.63
2023-05-10T08:09:16.362Z,96729.91
2023-05-10T08:11:45.227Z,96722.53
2023-05-10T08:14:11.793Z,96729.63
2023-05-10T08:16:40.683Z,96733.03
2023-05-10T08:19:10.242Z,96732.03
2023-05-10T08:21:37.267Z,96729.00
2023-05-10T08:24:03.960Z,96741.19
2023-05-10T08:26:33.440Z,96747.41
2023-05-10T08:29:00.004Z,96738.16
2023-05-10T08:31:26.854Z,96731.66
2023-05-10T08:33:56.693Z,96730.56
2023-05-10T08:36:25.240Z,96737.28
2023-05-10T08:38:59.899Z,96735.44
2023-05-10T08:41:29.726Z,96734.34
2023-05-10T08:43:56.373Z,96739.94
2023-05-10T08:46:27.656Z,96732.13
2023-05-10T08:48:55.154Z,96736.88
2023-05-10T08:51:30.360Z,96746.28
2023-05-10T08:53:59.917Z,96751.00
2023-05-10T08:56:27.248Z,96746.75
2023-05-10T08:58:54.041Z,96749.66
2023-05-10T09:01:23.906Z,96749.59
2023-05-10T09:03:56.883Z,96750.81
2023-05-10T09:06:26.289Z,96746.59
2023-05-10T09:08:53.507Z,96753.75
2023-05-10T09:11:21.353Z,96751.63
2023-05-10T09:13:51.712Z,96751.75
2023-05-10T09:16:22.276Z,96763.31
2023-05-10T09:18:50.443Z,96766.50
2023-05-10T09:21:19.432Z,96760.59
2023-05-10T09:23:51.189Z,96759.53
2023-05-10T09:26:18.460Z,96753.72
2023-05-10T09:28:59.244Z,96751.34
2023-05-10T09:31:43.849Z,96761.78
2023-05-10T09:34:16.409Z,96761.91
2023-05-10T09:36:53.367Z,96758.00
2023-05-10T09:39:31.076Z,96748.28
2023-05-10T09:41:59.418Z,96750.59
2023-05-10T09:44:27.092Z,96745.97
2023-05-10T09:46:56.135Z,96743.38
2023-05-10T09:49:25.437Z,96746.94
2023-05-10T09:52:03.745Z,96736.28
2023-05-10T09:54:30.826Z,96730.91
2023-05-10T09:56:57.703Z,96731.03
2023-05-10T09:59:28.226Z,96728.00
2023-05-10T10:01:57.968Z,96731.38
2023-05-10T10:04:24.725Z,96724.13
2023-05-10T10:07:05.394Z,96728.22
2023-05-10T10:09:33.304Z,96725.31
2023-05-10T10:12:03.811Z,96730.56
2023-05-10T10:14:31.000Z,96723.00
2023-05-10T10:17:07.291Z,96727.03
2023-05-10T10:19:36.784Z,96723.38
2023-05-10T10:22:04.007Z,96722.63
2023-05-10T10:24:30.834Z,96728.09
2023-05-10T10:27:06.261Z,96724.00
2023-05-10T10:29:40.632Z,96728.66
2023-05-10T10:32:30.725Z,96733.28
2023-05-10T10:35:02.343Z,96731.19
2023-05-10T10:37:46.260Z,96735.09
2023-05-10T10:40:34.970Z,96746.19
2023-05-10T10:43:29.841Z,96741.06
2023-05-10T10:46:18.994Z,96740.75
2023-05-10T10:49:11.422Z,96745.97
2023-05-10T10:51:41.792Z,96747.81
2023-05-10T10:54:27.704Z,96739.81
2023-05-10T10:57:17.493Z,96748.03
2023-05-10T10:59:47.394Z,96750.56
2023-05-10T11:02:35.723Z,96743.00
2023-05-10T11:05:25.023Z,96738.84
2023-05-10T11:07:59.817Z,96741.63
2023-05-10T11:10:27.953Z,96736.03
2023-05-10T11:13:01.911Z,96729.31
2023-05-10T11:15:36.747Z,96735.19
2023-05-10T11:18:22.293Z,96731.22
2023-05-10T11:21:00.051Z,96727.06
2023-05-10T11:23:47.061Z,96728.59
2023-05-10T11:26:16.382Z,96722.81
2023-05-10T11:28:49.322Z,96726.34
2023-05-10T11:31:20.017Z,96716.63
2023-05-10T11:33:47.218Z,96718.09
2023-05-10T11:36:17.552Z,96701.88
2023-05-10T11:38:47.183Z,96725.03
2023-05-10T11:41:16.854Z,96720.38
2023-05-10T11:43:49.969Z,96717.03
2023-05-10T11:46:17.926Z,96728.41
2023-05-10T11:48:44.941Z,96720.16
2023-05-10T11:51:13.830Z,96723.97
2023-05-10T11:53:42.941Z,96715.09
2023-05-10T11:56:12.181Z,96713.91
2023-05-10T11:58:40.507Z,96726.34
2023-05-10T12:01:10.046Z,96720.03
2023-05-10T12:03:37.177Z,96720.78
2023-05-10T12:06:06.736Z,96730.59
2023-05-10T12:08:38.016Z,96726.97
2023-05-10T12:11:07.591Z,96721.13
2023-05-10T12:13:44.265Z,96723.44
2023-05-10T12:16:19.225Z,96719.78
2023-05-10T12:18:52.076Z,96714.00
2023-05-10T12:21:22.027Z,96720.31
2023-05-10T12:23:51.728Z,96718.78
2023-05-10T12:26:18.923Z,96716.56
2023-05-10T12:28:45.484Z,96714.00
2023-05-10T12:31:14.926Z,96719.53
2023-05-10T12:33:48.542Z,96718.78
2023-05-10T12:36:16.923Z,96713.94
2023-05-10T12:38:48.811Z,96719.72
2023-05-10T12:41:19.545Z,96714.38
2023-05-10T12:43:49.178Z,96713.59
2023-05-10T12:46:19.584Z,96718.28
2023-05-10T12:48:55.183Z,96724.19
2023-05-10T12:51:29.614Z,96718.63
2023-05-10T12:53:56.480Z,96714.53
2023-05-10T12:56:23.015Z,96712.06
2023-05-10T12:58:49.476Z,96711.78
2023-05-10T13:01:20.881Z,96709.63
2023-05-10T13:03:50.594Z,96705.34
2023-05-10T13:06:17.107Z,96695.28
2023-05-10T13:08:43.631Z,96698.13
2023-05-10T13:11:10.199Z,96687.75
2023-05-10T13:13:39.123Z,96696.63
2023-05-10T13:16:08.132Z,96696.09
2023-05-10T13:18:34.647Z,96697.25
2023-05-10T13:21:01.258Z,96695.63
2023-05-10T13:23:32.670Z,96703.81
2023-05-10T13:26:01.310Z,96696.38
2023-05-10T13:28:27.874Z,96697.31
2023-05-10T13:30:54.438Z,96701.59
2023-05-10T13:33:23.186Z,96690.59
2023-05-10T13:35:55.735Z,96696.38
2023-05-10T13:38:24.872Z,96690.69
2023-05-10T13:40:56.315Z,96684.63
2023-05-10T13:43:25.361Z,96691.38
2023-05-10T13:45:51.916Z,96694.63
2023-05-10T13:48:18.469Z,96698.56
2023-05-10T13:50:45.002Z,96695.44
2023-05-10T13:53:16.431Z,96688.00
2023-05-10T13:55:45.187Z,96691.06
2023-05-10T13:58:11.737Z,96691.59
2023-05-10T14:00:40.584Z,96689.75
2023-05-10T14:03:07.925Z,96690.63
2023-05-10T14:05:38.041Z,96685.25
2023-05-10T14:08:07.272Z,96674.78
2023-05-10T14:10:38.983Z,96673.34
2023-05-10T14:13:05.575Z,96676.34
2023-05-10T14:15:32.033Z,96681.38
2023-05-10T14:17:58.619Z,96681.66
2023-05-10T14:20:25.284Z,96675.41
2023-05-10T14:22:54.353Z,96674.09
2023-05-10T14:25:23.982Z,96673.50
2023-05-10T14:27:50.492Z,96669.19
2023-05-10T14:30:17.153Z,96667.09
2023-05-10T14:32:48.574Z,96671.34
2023-05-10T14:35:16.934Z,96681.28
2023-05-10T14:37:45.847Z,96677.19
2023-05-10T14:40:13.327Z,96689.69
2023-05-10T14:42:46.108Z,96689.53
2023-05-10T14:45:15.199Z,96683.03
2023-05-10T14:47:44.358Z,96682.16
2023-05-10T14:50:14.710Z,96691.22
2023-05-10T14:52:47.632Z,96687.06
2023-05-10T14:55:14.271Z,96686.41
2023-05-10T14:57:44.935Z,96681.28
2023-05-10T15:00:16.573Z,96683.94
2023-05-10T15:02:46.071Z,96677.56
2023-05-10T15:05:18.175Z,96679.81
2023-05-10T15:07:45.328Z,96671.13
2023-05-10T15:10:12.358Z,96673.72
2023-05-10T15:12:43.632Z,96675.34
2023-05-10T15:15:12.456Z,96669.16
2023-05-10T15:17:41.441Z,96674.19
2023-05-10T15:20:11.300Z,96668.91
2023-05-10T15:22:37.882Z,96671.34
2023-05-10T15:25:04.970Z,96677.00
2023-05-10T15:27:34.457Z,96677.50
2023-05-10T15:30:06.043Z,96675.63
2023-05-10T15:32:35.170Z,96680.84
2023-05-10T15:35:01.700Z,96675.34
2023-05-10T15:37:28.457Z,96683.16
2023-05-10T15:39:56.360Z,96678.53
2023-05-10T15:42:26.475Z,96672.00
2023-05-10T15:44:52.981Z,96674.50
2023-05-10T15:47:19.595Z,96677.31
2023-05-10T15:49:46.245Z,96688.28
2023-05-10T15:52:15.323Z,96689.50
2023-05-10T15:54:44.894Z,96686.81
2023-05-10T15:57:11.544Z,96692.66
2023-05-10T15:59:41.602Z,96690.31
2023-05-10T16:02:11.505Z,96691.47
2023-05-10T16:04:39.498Z,96694.34
2023-05-10T16:07:08.154Z,96690.19
2023-05-10T16:09:34.717Z,96693.78
2023-05-10T16:12:02.636Z,96692.53
2023-05-10T16:14:29.430Z,96688.88
2023-05-10T16:16:58.435Z,96693.09
2023-05-10T16:19:25.717Z,96694.25
2023-05-10T16:21:53.249Z,96686.47
2023-05-10T16:24:22.151Z,96695.19
2023-05-10T16:26:53.466Z,96699.47
2023-05-10T16:29:22.274Z,96698.72
2023-05-10T16:31:48.850Z,96703.34
2023-05-10T16:34:16.379Z,96695.47
2023-05-10T16:36:45.005Z,96705.75
2023-05-10T16:39:11.755Z,96708.59
2023-05-10T16:41:43.120Z,96715.84
2023-05-10T16:44:09.685Z,96715.59
2023-05-10T16:46:36.661Z,96722.84
2023-05-10T16:49:03.660Z,96717.63
2023-05-10T16:51:30.293Z,96723.34
2023-05-10T16:53:59.047Z,96729.28
2023-05-10T16:56:27.822Z,96742.66
2023-05-10T16:58:56.910Z,96745.81
2023-05-10T17:01:25.771Z,96748.03
2023-05-10T17:03:53.612Z,96751.41
2023-05-10T17:06:20.193Z,96753.44
2023-05-10T17:08:49.141Z,96751.94
2023-05-10T17:11:15.727Z,96743.97
2023-05-10T17:13:42.213Z,96747.56
2023-05-10T17:16:11.179Z,96749.31
2023-05-10T17:18:41.700Z,96754.22
2023-05-10T17:21:09.297Z,96744.53
2023-05-10T17:23:35.847Z,96756.31
2023-05-10T17:26:09.297Z,96757.34
2023-05-10T17:28:35.816Z,96754.59
2023-05-10T17:31:02.812Z,96752.06
2023-05-10T17:33:29.371Z,96756.50
2023-05-10T17:35:56.419Z,96756.50
2023-05-10T17:38:30.279Z,96760.13
2023-05-10T17:40:56.817Z,96767.72
2023-05-10T17:43:23.868Z,96763.31
2023-05-10T17:45:50.526Z,96754.53
2023-05-10T17:48:19.704Z,96756.00
2023-05-10T17:50:46.293Z,96765.31
2023-05-10T17:53:15.087Z,96758.59
2023-05-10T17:55:42.164Z,96769.44
2023-05-10T17:58:12.302Z,96760.00
2023-05-10T18:00:39.421Z,96760.59
2023-05-10T18:03:08.385Z,96758.31
2023-05-10T18:05:41.614Z,96754.19
2023-05-10T18:08:08.626Z,96751.75
2023-05-10T18:10:37.385Z,96760.31
2023-05-10T18:13:08.042Z,96751.53
2023-05-10T18:15:35.506Z,96755.44
2023-05-10T18:18:03.618Z,96756.22
2023-05-10T18:20:33.790Z,96759.34
2023-05-10T18:23:00.339Z,96759.59
2023-05-10T18:25:27.357Z,96766.09
2023-05-10T18:27:54.328Z,96759.03
2023-05-10T18:30:23.582Z,96772.22
2023-05-10T18:32:52.530Z,96766.19
2023-05-10T18:35:19.577Z,96763.00
2023-05-10T18:37:48.754Z,96765.63
2023-05-10T18:40:17.121Z,96768.94
2023-05-10T18:42:46.793Z,96775.72
2023-05-10T18:45:13.633Z,96779.09
2023-05-10T18:47:40.183Z,96776.88
2023-05-10T18:50:07.723Z,96781.22
2023-05-10T18:52:39.521Z,96783.25
2023-05-10T18:55:09.150Z,96792.78
2023-05-10T18:57:41.473Z,96794.28
2023-05-10T19:00:10.551Z,96795.41
2023-05-10T19:02:38.779Z,96790.84
2023-05-10T19:05:06.369Z,96799.91
2023-05-10T19:07:32.981Z,96793.81
2023-05-10T19:09:59.864Z,96793.81
2023-05-10T19:12:26.806Z,96792.94
2023-05-10T19:14:53.480Z,96796.09
2023-05-10T19:17:20.222Z,96807.63
2023-05-10T19:19:50.161Z,96807.53
2023-05-10T19:22:28.325Z,96816.94
2023-05-10T19:25:06.630Z,96816.28
2023-05-10T19:27:34.426Z,96828.38
2023-05-10T19:30:03.720Z,96823.16
2023-05-10T19:32:31.212Z,96828.69
2023-05-10T19:35:01.662Z,96831.00
2023-05-10T19:37:29.533Z,96825.41
2023-05-10T19:39:56.737Z,96829.03
2023-05-10T19:42:23.350Z,96836.78
2023-05-10T19:44:50.974Z,96838.94
2023-05-10T19:47:18.293Z,96833.94
2023-05-10T19:49:47.334Z,96831.09
2023-05-10T19:52:14.168Z,96830.78
2023-05-10T19:54:41.495Z,96833.06
2023-05-10T19:57:08.084Z,96839.59
2023-05-10T19:59:34.644Z,96840.81
2023-05-10T20:02:01.274Z,96846.25
2023-05-10T20:04:28.923Z,96851.25
2023-05-10T20:07:00.378Z,96840.34
2023-05-10T20:09:26.960Z,96842.53
2023-05-10T20:11:55.790Z,96847.66
2023-05-10T20:14:25.382Z,96852.25
2023-05-10T20:16:52.058Z,96849.28
2023-05-10T20:19:18.758Z,96849.72
2023-05-10T20:21:47.584Z,96845.38
2023-05-10T20:24:14.261Z,96852.78
2023-05-10T20:26:43.458Z,96854.31
2023-05-10T20:29:13.224Z,96851.25
2023-05-10T20:31:39.857Z,96852.56
2023-05-10T20:34:06.516Z,96856.16
2023-05-10T20:36:33.101Z,96854.22
2023-05-10T20:38:59.613Z,96850.38
2023-05-10T20:41:26.693Z,96856.16
2023-05-10T20:43:57.975Z,96854.72
2023-05-10T20:46:30.389Z,96860.19
2023-05-10T20:48:56.944Z,96856.25
2023-05-10T20:51:26.251Z,96857.88
2023-05-10T20:53:57.026Z,96856.59
2023-05-10T20:56:26.858Z,96855.28
2023-05-10T20:58:53.458Z,96861.16
2023-05-10T21:01:22.474Z,96850.59
2023-05-10T21:03:49.131Z,96858.66
2023-05-10T21:06:15.755Z,96850.69
2023-05-10T21:08:45.482Z,96850.59
2023-05-10T21:11:14.515Z,96850.59
2023-05-10T21:13:43.331Z,96848.72
2023-05-10T21:16:09.850Z,96856.03
2023-05-10T21:18:38.781Z,96846.00
2023-05-10T21:21:10.080Z,96846.56
2023-05-10T21:23:36.702Z,96843.63
2023-05-10T21:26:06.480Z,96845.25
2023-05-10T21:28:35.363Z,96852.34
2023-05-10T21:31:04.227Z,96844.16
2023-05-10T21:33:33.214Z,96848.41
2023-05-10T21:35:59.787Z,96850.03
2023-05-10T21:38:27.963Z,96846.13
2023-05-10T21:40:57.114Z,96845.47
2023-05-10T21:43:27.180Z,96842.06
2023-05-10T21:45:53.848Z,96840.78
2023-05-10T21:48:25.688Z,96844.34
2023-05-10T21:50:54.507Z,96840.31
2023-05-10T21:53:23.353Z,96843.72
2023-05-10T21:55:57.969Z,96833.03
2023-05-10T21:58:26.684Z,96840.19
2023-05-10T22:00:56.197Z,96839.88
2023-05-10T22:03:27.570Z,96836.38
2023-05-10T22:05:54.219Z,96835.72
2023-05-10T22:08:20.957Z,96837.22
2023-05-10T22:10:47.483Z,96841.75
2023-05-10T22:13:16.113Z,96841.78
2023-05-10T22:15:45.161Z,96847.47
2023-05-10T22:18:13.837Z,96841.44
2023-05-10T22:20:40.450Z,96839.59
2023-05-10T22:23:11.786Z,96843.59
2023-05-10T22:25:40.863Z,96841.13
2023-05-10T22:28:08.591Z,96838.59
2023-05-10T22:30:37.544Z,96845.00
2023-05-10T22:33:04.330Z,96842.53
2023-05-10T22:35:33.130Z,96841.13
2023-05-10T22:37:59.662Z,96840.66
2023-05-10T22:40:26.324Z,96837.91
2023-05-10T22:42:52.978Z,96832.22
2023-05-10T22:45:19.575Z,96839.75
2023-05-10T22:47:49.262Z,96834.91
2023-05-10T22:50:16.681Z,96836.97
2023-05-10T22:52:43.464Z,96834.03
2023-05-10T22:55:10.347Z,96827.34
2023-05-10T22:57:40.047Z,96830.28
2023-05-10T23:00:09.409Z,96826.72
2023-05-10T23:02:38.808Z,96820.91
2023-05-10T23:05:08.844Z,96825.66
2023-05-10T23:07:38.185Z,96825.78
2023-05-10T23:10:05.064Z,96827.25
2023-05-10T23:12:31.576Z,96828.97
2023-05-10T23:14:58.169Z,96829.06
2023-05-10T23:17:24.787Z,96831.28
2023-05-10T23:19:51.369Z,96833.91
2023-05-10T23:22:22.420Z,96835.41
2023-05-10T23:24:51.203Z,96834.81
2023-05-10T23:27:17.742Z,96833.81
2023-05-10T23:29:46.575Z,96831.00
2023-05-10T23:32:15.409Z,96827.19
2023-05-10T23:34:44.981Z,96833.41
2023-05-10T23:37:16.949Z,96835.59
2023-05-10T23:39:43.518Z,96825.16
2023-05-10T23:42:12.631Z,96824.66
2023-05-10T23:44:41.521Z,96830.50
2023-05-10T23:47:08.165Z,96827.44
2023-05-10T23:49:34.768Z,96827.88
2023-05-10T23:52:06.224Z,96815.56
2023-05-10T23:54:34.985Z,96824.22
2023-05-10T23:57:01.799Z,96819.22
2023-05-10T23:59:30.706Z,96825.66
